Time;durP1;ratioP1;P1;durP2;ratioP2;P2;SDS_P1;SDS_P2;PMS_P1;PMS_P2;Temp;Humidity;BMP_temperature;BMP_pressure;BME280_temperature;BME280_humidity;BME280_pressure;Samples;Min_cycle;Max_cycle;Signal;HPM_P1;HPM_P2
2023/07/19 00:00:55;;;;;;;9.80;5.30;;;;;;;19.93;59.86;98807.13;223659;181;138381;-62
2023/07/19 00:06:14;;;;;;;10.10;4.90;;;;;;;19.89;60.27;98805.26;223656;182;137220;-63
2023/07/19 00:11:17;;;;;;;8.30;5.30;;;;;;;19.86;60.38;98799.56;223778;181;145639;-62
2023/07/19 00:16:21;;;;;;;13.80;5.00;;;;;;;19.79;60.52;98799.13;223680;182;138665;-62
2023/07/19 00:21:24;;;;;;;6.30;4.40;;;;;;;19.73;60.77;98790.14;223655;182;140663;-62
2023/07/19 00:26:27;;;;;;;8.30;5.10;;;;;;;19.66;61.14;98785.40;223743;181;145363;-61
2023/07/19 00:31:31;;;;;;;7.60;4.30;;;;;;;19.61;61.28;98775.63;223778;182;138721;-63
2023/07/19 00:36:34;;;;;;;7.30;4.70;;;;;;;19.59;61.48;98767.03;223723;182;136592;-62
2023/07/19 00:41:44;;;;;;;14.50;4.60;;;;;;;19.57;61.66;98761.27;223782;182;145054;-62
2023/07/19 00:46:47;;;;;;;8.30;4.00;;;;;;;19.58;61.55;98747.23;223683;181;138236;-62
2023/07/19 00:51:50;;;;;;;9.00;4.40;;;;;;;19.59;60.76;98751.35;223657;181;136341;-62
2023/07/19 01:02:05;;;;;;;9.30;4.30;;;;;;;19.66;59.98;98735.42;221668;193;666174;-62
2023/07/19 01:07:08;;;;;;;8.20;4.10;;;;;;;19.65;59.90;98727.95;223730;182;138728;-63
2023/07/19 01:12:12;;;;;;;6.30;4.10;;;;;;;19.65;59.72;98725.84;223821;183;143614;-63
2023/07/19 01:17:15;;;;;;;8.40;4.50;;;;;;;19.65;59.54;98718.48;223736;183;138545;-63
2023/07/19 01:22:18;;;;;;;10.40;4.00;;;;;;;19.65;59.39;98712.13;223717;183;137505;-63
2023/07/19 01:27:22;;;;;;;6.60;3.90;;;;;;;19.66;59.54;98711.29;223818;183;143427;-63
2023/07/19 01:32:25;;;;;;;7.40;4.00;;;;;;;19.65;59.34;98709.73;223732;183;139277;-63
2023/07/19 01:37:29;;;;;;;6.10;4.00;;;;;;;19.63;59.30;98701.33;223759;182;137877;-62
2023/07/19 01:42:32;;;;;;;7.80;3.90;;;;;;;19.62;59.21;98697.05;223779;183;144096;-63
2023/07/19 01:47:35;;;;;;;9.90;4.30;;;;;;;19.59;59.06;98691.45;223617;182;138351;-63
2023/07/19 01:52:40;;;;;;;7.90;3.70;;;;;;;19.57;59.03;98689.55;223642;183;139401;-63
2023/07/19 01:57:43;;;;;;;5.70;4.00;;;;;;;19.54;58.93;98687.28;223560;183;145805;-63
2023/07/19 02:02:46;;;;;;;7.10;3.40;;;;;;;19.50;59.06;98687.59;223591;183;139060;-64
2023/07/19 02:07:50;;;;;;;7.20;3.80;;;;;;;19.45;58.99;98684.62;223569;183;140373;-62
2023/07/19 02:12:53;;;;;;;10.80;3.50;;;;;;;19.41;59.09;98680.05;223531;184;146085;-60
2023/07/19 02:17:56;;;;;;;6.00;3.70;;;;;;;19.37;59.24;98679.55;223507;184;139812;-60
2023/07/19 02:23:00;;;;;;;11.00;3.60;;;;;;;19.32;59.34;98684.59;223601;182;137188;-62
2023/07/19 02:28:03;;;;;;;7.30;3.60;;;;;;;19.30;59.70;98683.36;223744;181;146497;-62
2023/07/19 02:33:06;;;;;;;7.70;3.90;;;;;;;19.24;59.59;98674.78;223757;182;138403;-62
2023/07/19 02:38:10;;;;;;;7.60;3.90;;;;;;;19.22;59.82;98672.13;223799;181;136443;-62
2023/07/19 02:43:13;;;;;;;11.30;4.20;;;;;;;19.19;59.79;98674.24;223646;182;145319;-62
2023/07/19 02:48:17;;;;;;;6.70;4.20;;;;;;;19.14;59.60;98668.77;223714;182;138493;-62
2023/07/19 02:53:23;;;;;;;7.90;4.50;;;;;;;19.12;60.16;98673.00;223727;182;138111;-62
2023/07/19 02:58:28;;;;;;;7.00;4.10;;;;;;;19.08;60.56;98667.20;223690;181;145280;-62
2023/07/19 03:03:32;;;;;;;9.20;3.60;;;;;;;19.04;60.89;98665.36;223615;181;139475;-62
2023/07/19 03:08:36;;;;;;;11.10;4.80;;;;;;;18.99;61.21;98664.84;223760;182;137435;-62
2023/07/19 03:13:39;;;;;;;8.20;4.60;;;;;;;18.97;61.59;98663.01;223689;181;145632;-62
2023/07/19 03:18:43;;;;;;;10.90;4.40;;;;;;;18.98;61.80;98668.65;223662;181;140533;-62
2023/07/19 03:23:46;;;;;;;9.30;4.30;;;;;;;19.00;62.21;98673.08;223696;182;140722;-63
2023/07/19 03:28:50;;;;;;;7.00;4.10;;;;;;;19.06;61.39;98667.85;223733;182;145281;-63
2023/07/19 03:33:53;;;;;;;7.20;4.20;;;;;;;19.13;61.23;98667.23;223753;182;138629;-63
2023/07/19 03:38:58;;;;;;;7.10;4.10;;;;;;;19.20;60.67;98665.70;223791;181;137082;-62
2023/07/19 03:44:01;;;;;;;4.60;3.30;;;;;;;19.27;60.29;98656.27;223711;181;149261;-61
2023/07/19 03:49:05;;;;;;;6.40;4.10;;;;;;;19.33;60.01;98646.11;223672;181;139644;-61
2023/07/19 03:54:08;;;;;;;7.90;4.00;;;;;;;19.38;60.07;98644.89;223707;182;137336;-62
2023/07/19 03:59:12;;;;;;;6.30;3.60;;;;;;;19.40;59.98;98642.87;223708;182;145174;-62
2023/07/19 04:04:16;;;;;;;7.30;4.00;;;;;;;19.43;59.94;98639.71;223676;181;138607;-63
2023/07/19 04:09:19;;;;;;;5.40;3.50;;;;;;;19.47;60.35;98640.95;223715;181;139826;-62
2023/07/19 04:14:22;;;;;;;7.00;3.90;;;;;;;19.51;60.26;98641.73;223728;182;144538;-62
2023/07/19 04:19:26;;;;;;;11.90;4.30;;;;;;;19.55;60.23;98644.31;223599;181;138644;-62
2023/07/19 04:24:29;;;;;;;9.00;3.90;;;;;;;19.60;60.18;98644.20;223630;181;137204;-62
2023/07/19 04:29:32;;;;;;;13.90;4.40;;;;;;;19.63;60.08;98645.52;223626;181;145433;-62
2023/07/19 04:34:36;;;;;;;8.90;3.90;;;;;;;19.67;60.41;98644.58;223685;182;138765;-62
2023/07/19 04:39:39;;;;;;;10.10;3.70;;;;;;;19.71;60.70;98638.61;223750;181;136871;-63
2023/07/19 04:44:43;;;;;;;9.20;3.70;;;;;;;19.79;61.26;98632.27;223700;181;145165;-62
2023/07/19 04:49:46;;;;;;;11.50;4.10;;;;;;;19.89;61.35;98634.84;223672;181;138178;-64
2023/07/19 04:54:50;;;;;;;17.90;5.60;;;;;;;19.99;60.81;98644.55;223707;182;136928;-62
2023/07/19 04:59:53;;;;;;;11.70;4.40;;;;;;;20.09;60.69;98649.30;223755;181;145253;-63
2023/07/19 05:04:56;;;;;;;9.50;4.20;;;;;;;20.16;60.76;98648.16;223608;181;138423;-61
2023/07/19 05:10:00;;;;;;;11.50;4.20;;;;;;;20.23;61.00;98647.53;223683;181;137519;-62
2023/07/19 05:15:04;;;;;;;10.30;4.10;;;;;;;20.30;60.93;98647.27;223720;182;145288;-61
2023/07/19 05:20:09;;;;;;;9.50;3.70;;;;;;;20.37;61.20;98642.25;223620;182;138278;-63
2023/07/19 05:25:13;;;;;;;10.50;4.40;;;;;;;20.44;61.25;98639.83;223737;181;136835;-62
2023/07/19 05:30:16;;;;;;;12.00;4.00;;;;;;;20.53;61.59;98638.06;223595;182;145238;-63
2023/07/19 05:35:19;;;;;;;9.60;3.60;;;;;;;20.63;61.60;98637.26;223679;181;139599;-62
2023/07/19 05:40:22;;;;;;;10.40;3.60;;;;;;;20.78;61.36;98637.08;223657;181;138023;-63
2023/07/19 05:45:26;;;;;;;16.00;4.10;;;;;;;20.94;61.53;98632.23;223598;181;145915;-63
2023/07/19 05:50:29;;;;;;;10.00;4.00;;;;;;;21.10;61.36;98627.20;223742;181;138222;-64
2023/07/19 05:55:32;;;;;;;17.70;4.60;;;;;;;21.21;61.21;98617.23;223711;182;137471;-62
2023/07/19 06:00:35;;;;;;;13.80;4.50;;;;;;;21.33;60.85;98612.20;223604;182;145871;-62
2023/07/19 06:05:38;;;;;;;13.60;4.30;;;;;;;21.40;60.64;98612.46;223709;183;138481;-62
2023/07/19 06:10:42;;;;;;;12.10;4.70;;;;;;;21.48;60.50;98609.36;223728;182;136841;-64
2023/07/19 06:15:45;;;;;;;16.80;4.80;;;;;;;21.57;60.45;98608.39;223695;182;145318;-64
2023/07/19 06:20:49;;;;;;;12.60;4.60;;;;;;;21.62;60.13;98607.41;223778;181;139410;-62
2023/07/19 06:25:56;;;;;;;10.30;5.30;;;;;;;21.68;60.00;98604.16;223568;181;137163;-62
2023/07/19 06:30:59;;;;;;;11.90;4.30;;;;;;;21.89;59.49;98597.55;223774;181;145326;-62
2023/07/19 06:36:03;;;;;;;8.70;4.60;;;;;;;22.09;59.09;98601.64;223669;182;138510;-62
2023/07/19 06:41:07;;;;;;;14.80;4.60;;;;;;;22.34;58.58;98600.34;223750;182;137696;-64
2023/07/19 06:46:10;;;;;;;8.70;4.50;;;;;;;22.50;57.62;98601.08;223763;182;145666;-63
2023/07/19 06:51:14;;;;;;;13.20;4.70;;;;;;;22.74;56.91;98596.80;223631;181;138602;-64
2023/07/19 06:56:19;;;;;;;10.50;4.90;;;;;;;22.86;56.15;98587.80;223778;181;137224;-63
2023/07/19 07:01:22;;;;;;;9.40;4.80;;;;;;;22.86;55.45;98585.05;223752;181;145254;-63
2023/07/19 07:06:27;;;;;;;18.70;5.40;;;;;;;23.04;55.76;98579.30;223693;181;140328;-57
2023/07/19 07:11:30;;;;;;;15.10;5.40;;;;;;;23.12;55.28;98574.30;223787;181;137229;-63
2023/07/19 07:16:33;;;;;;;16.10;5.60;;;;;;;23.29;55.17;98565.95;223654;181;145237;-63
2023/07/19 07:21:36;;;;;;;18.40;6.30;;;;;;;23.42;54.51;98568.85;222273;181;139101;-62
2023/07/19 07:26:40;;;;;;;23.00;6.50;;;;;;;23.39;54.26;98566.10;223252;182;137699;-64
2023/07/19 07:31:43;;;;;;;15.10;5.40;;;;;;;23.42;54.38;98563.67;223744;181;145990;-63
2023/07/19 07:36:47;;;;;;;18.40;5.10;;;;;;;23.49;54.30;98558.08;223715;182;138871;-63
2023/07/19 07:41:50;;;;;;;12.90;4.90;;;;;;;23.49;54.10;98556.62;223649;181;137674;-63
2023/07/19 07:46:53;;;;;;;15.30;5.00;;;;;;;23.58;53.74;98553.17;223661;182;145701;-63
2023/07/19 07:51:56;;;;;;;21.50;5.70;;;;;;;23.67;53.58;98548.45;223607;181;138843;-63
2023/07/19 07:57:00;;;;;;;20.50;5.50;;;;;;;23.75;53.50;98548.85;223819;181;137203;-63
2023/07/19 08:02:03;;;;;;;19.60;6.00;;;;;;;23.85;53.39;98555.53;223855;181;148290;-63
2023/07/19 08:07:08;;;;;;;19.20;6.80;;;;;;;23.92;54.18;98557.40;223717;181;138328;-63
2023/07/19 08:12:13;;;;;;;20.50;6.50;;;;;;;23.96;54.14;98548.34;223782;182;138428;-61
2023/07/19 08:17:16;;;;;;;19.30;6.40;;;;;;;24.00;53.78;98547.84;223622;181;147587;-60
2023/07/19 08:22:25;;;;;;;24.00;6.20;;;;;;;24.05;52.80;98542.54;223608;181;138095;-62
2023/07/19 08:27:28;;;;;;;18.60;6.40;;;;;;;24.13;52.92;98533.98;223754;181;137047;-62
2023/07/19 08:32:33;;;;;;;17.30;5.70;;;;;;;24.22;52.88;98530.02;223808;181;145320;-62
2023/07/19 08:37:37;;;;;;;15.60;6.30;;;;;;;24.27;52.86;98521.77;223733;182;138401;-61
2023/07/19 08:42:43;;;;;;;16.20;6.00;;;;;;;24.32;52.97;98518.15;223686;181;137319;-67
2023/07/19 08:47:48;;;;;;;14.60;6.00;;;;;;;24.40;52.75;98512.06;223661;181;145352;-62
2023/07/19 08:52:52;;;;;;;20.20;6.30;;;;;;;24.45;52.72;98505.89;223721;182;138201;-62
2023/07/19 08:57:55;;;;;;;13.10;5.50;;;;;;;24.56;52.08;98494.38;223731;181;136463;-62
2023/07/19 09:02:58;;;;;;;14.70;5.70;;;;;;;24.66;52.11;98492.95;223715;181;145350;-61
2023/07/19 09:08:02;;;;;;;12.90;5.40;;;;;;;24.73;51.45;98493.95;223755;182;139445;-61
2023/07/19 09:13:06;;;;;;;14.50;5.10;;;;;;;24.82;51.55;98490.31;223725;182;136768;-62
2023/07/19 09:18:10;;;;;;;10.70;5.20;;;;;;;24.96;51.57;98481.54;223798;181;145629;-62
2023/07/19 09:23:16;;;;;;;10.10;4.50;;;;;;;25.00;51.15;98474.63;223696;181;139136;-62
2023/07/19 09:28:21;;;;;;;11.60;3.80;;;;;;;25.16;50.57;98479.52;223904;183;136613;-62
2023/07/19 09:33:28;;;;;;;10.90;4.40;;;;;;;25.37;49.47;98476.69;223290;181;147091;-62
2023/07/19 09:38:31;;;;;;;13.20;4.80;;;;;;;25.44;49.85;98467.74;223775;182;138075;-62
2023/07/19 09:43:35;;;;;;;12.30;4.80;;;;;;;25.55;49.65;98465.34;223697;181;137450;-62
2023/07/19 09:48:38;;;;;;;14.20;5.10;;;;;;;25.60;49.23;98456.71;223639;181;147138;-62
2023/07/19 09:53:43;;;;;;;13.60;4.70;;;;;;;25.70;49.02;98456.66;223677;182;138247;-62
2023/07/19 09:58:47;;;;;;;;;;;;;;;25.83;48.89;98450.50;223774;181;138977;-61
2023/07/19 10:03:50;;;;;;;9.10;4.40;;;;;;;26.01;48.68;98447.92;223662;181;147635;-62
2023/07/19 10:09:22;;;;;;;10.90;4.20;;;;;;;26.17;47.93;98439.57;223724;182;139880;-62
2023/07/19 10:14:27;;;;;;;11.10;4.40;;;;;;;26.36;48.22;98434.66;223715;182;137343;-62
2023/07/19 10:19:36;;;;;;;12.30;4.20;;;;;;;26.51;46.90;98427.83;223672;182;147686;-62
2023/07/19 10:29:01;;;;;;;14.90;4.90;;;;;;;26.85;46.82;98415.17;220208;192;666403;-62
2023/07/19 10:34:04;;;;;;;10.40;4.60;;;;;;;26.84;46.12;98416.11;223565;184;136693;-62
2023/07/19 10:39:07;;;;;;;11.80;4.70;;;;;;;27.01;46.74;98407.78;223610;180;143330;-63
2023/07/19 10:44:11;;;;;;;14.90;4.30;;;;;;;27.18;46.25;98404.33;223630;183;138776;-62
2023/07/19 10:49:15;;;;;;;15.30;5.20;;;;;;;27.26;45.62;98400.80;223599;182;136698;-63
2023/07/19 10:54:19;;;;;;;10.70;4.50;;;;;;;27.28;45.86;98394.40;223605;182;143941;-63
2023/07/19 10:59:25;;;;;;;8.60;3.70;;;;;;;27.31;45.22;98390.71;223640;183;141089;-63
2023/07/19 11:04:29;;;;;;;15.20;4.00;;;;;;;27.40;43.95;98390.67;223776;182;137457;-63
2023/07/19 11:09:33;;;;;;;14.20;4.60;;;;;;;27.65;43.42;98393.63;223697;183;145421;-63
2023/07/19 11:14:42;;;;;;;14.20;3.90;;;;;;;27.88;42.45;98388.55;223514;183;138527;-62
2023/07/19 11:19:46;;;;;;;6.40;3.40;;;;;;;28.04;40.53;98378.03;223596;183;137253;-63
2023/07/19 11:24:50;;;;;;;7.90;3.50;;;;;;;28.34;39.51;98373.73;223759;183;145574;-64
2023/07/19 11:29:55;;;;;;;8.40;3.60;;;;;;;28.65;39.72;98366.50;223692;183;139283;-64
2023/07/19 11:35:00;;;;;;;7.30;3.60;;;;;;;28.89;39.87;98359.60;223790;183;137480;-63
2023/07/19 11:40:09;;;;;;;10.00;3.80;;;;;;;29.20;38.41;98354.00;223552;183;145381;-62
2023/07/19 11:45:13;;;;;;;8.00;3.70;;;;;;;29.46;37.77;98339.70;223652;183;139504;-64
2023/07/19 11:50:16;;;;;;;10.50;3.20;;;;;;;29.65;36.32;98342.30;223590;179;137756;-64
2023/07/19 11:55:20;;;;;;;7.40;3.30;;;;;;;29.82;36.06;98343.27;223653;183;145084;-63
2023/07/19 12:00:24;;;;;;;7.10;3.30;;;;;;;29.97;35.96;98328.89;223514;184;138935;-63
2023/07/19 12:05:28;;;;;;;7.10;3.50;;;;;;;30.17;35.38;98328.23;223695;183;136601;-62
2023/07/19 12:10:32;;;;;;;6.40;3.60;;;;;;;30.35;34.79;98328.36;223675;183;145516;-63
2023/07/19 12:15:35;;;;;;;5.40;3.20;;;;;;;30.50;34.14;98325.30;223655;183;138452;-63
2023/07/19 12:20:38;;;;;;;7.60;3.50;;;;;;;30.66;34.04;98313.38;223588;182;136547;-63
2023/07/19 12:25:43;;;;;;;;;;;;;;;30.86;33.84;98313.05;223667;182;145949;-63
2023/07/19 12:30:46;;;;;;;7.00;3.80;;;;;;;31.00;33.22;98304.14;223685;182;138261;-64
2023/07/19 12:35:49;;;;;;;5.20;3.50;;;;;;;31.15;32.10;98296.89;223725;182;136876;-63
2023/07/19 12:40:52;;;;;;;7.10;3.50;;;;;;;31.18;32.32;98292.94;223659;182;145122;-64
2023/07/19 12:45:56;;;;;;;4.80;2.90;;;;;;;31.10;32.21;98291.58;223640;181;138869;-63
2023/07/19 12:51:02;;;;;;;6.20;3.50;;;;;;;31.29;31.79;98288.27;223698;182;136875;-62
2023/07/19 12:56:06;;;;;;;9.20;3.40;;;;;;;31.47;31.78;98277.59;223780;182;145930;-62
2023/07/19 13:01:12;;;;;;;;;;;;;;;31.66;30.89;98273.94;223706;182;139117;-62
2023/07/19 13:06:16;;;;;;;5.90;3.10;;;;;;;31.72;30.59;98273.92;223765;182;131535;-62
2023/07/19 13:11:20;;;;;;;12.00;3.70;;;;;;;31.85;30.75;98265.00;223759;182;145207;-62
2023/07/19 13:16:23;;;;;;;6.50;3.70;;;;;;;31.99;30.24;98263.42;223768;182;138775;-62
2023/07/19 13:21:27;;;;;;;8.20;3.60;;;;;;;32.09;30.37;98260.09;223706;182;137300;-63
2023/07/19 13:26:31;;;;;;;9.80;3.10;;;;;;;31.94;29.26;98261.14;223524;181;146201;-62
2023/07/19 13:31:45;;;;;;;5.00;3.10;;;;;;;31.92;27.94;98253.29;223681;182;138145;-62
2023/07/19 13:36:50;;;;;;;8.70;3.60;;;;;;;31.98;28.53;98242.86;223817;182;136479;-63
2023/07/19 13:41:57;;;;;;;5.50;2.90;;;;;;;32.14;28.73;98236.43;223682;182;145586;-63
2023/07/19 13:47:02;;;;;;;8.70;3.40;;;;;;;32.23;28.35;98236.49;223782;181;138357;-62
2023/07/19 13:52:06;;;;;;;7.20;3.70;;;;;;;32.27;27.90;98229.23;223758;182;137028;-62
2023/07/19 14:02:06;;;;;;;10.40;4.10;;;;;;;32.33;27.40;98225.11;221931;192;666095;-64
2023/07/19 14:07:09;;;;;;;6.00;3.10;;;;;;;32.34;27.41;98223.91;223790;182;136505;-64
2023/07/19 14:12:14;;;;;;;7.80;3.40;;;;;;;32.40;27.36;98225.01;223797;183;143894;-64
2023/07/19 14:17:17;;;;;;;14.50;3.30;;;;;;;32.39;27.97;98220.12;223789;182;138414;-64
2023/07/19 14:22:21;;;;;;;6.40;3.20;;;;;;;32.40;28.33;98217.92;223645;182;136236;-64
2023/07/19 14:27:24;;;;;;;9.00;3.10;;;;;;;32.39;27.82;98219.73;223785;182;144026;-64
2023/07/19 14:32:27;;;;;;;7.10;3.30;;;;;;;32.19;26.67;98217.29;223761;182;138632;-62
2023/07/19 14:37:33;;;;;;;5.50;2.80;;;;;;;32.08;26.91;98208.16;223629;183;136200;-64
2023/07/19 14:42:37;;;;;;;12.20;3.30;;;;;;;31.93;27.79;98201.94;223600;182;143451;-63
2023/07/19 14:47:40;;;;;;;4.40;2.80;;;;;;;31.77;27.74;98202.79;223720;182;138405;-63
2023/07/19 14:52:58;;;;;;;6.70;3.20;;;;;;;31.59;27.59;98196.20;223661;182;136088;-62
2023/07/19 15:02:06;;;;;;;5.80;2.60;;;;;;;31.16;27.91;98191.90;219840;193;666681;-62
2023/07/19 15:07:20;;;;;;;6.20;3.00;;;;;;;30.96;28.67;98193.42;223291;186;136948;-62
2023/07/19 15:12:25;;;;;;;5.30;3.20;;;;;;;30.79;29.42;98181.09;223777;183;143679;-62
2023/07/19 15:17:28;;;;;;;7.10;3.10;;;;;;;30.64;30.22;98178.41;223632;183;139430;-62
2023/07/19 15:22:34;;;;;;;14.40;3.30;;;;;;;30.48;29.46;98170.73;223685;182;136835;-62
2023/07/19 15:27:37;;;;;;;5.80;2.80;;;;;;;30.34;29.20;98180.95;223731;182;144061;-61
2023/07/19 15:32:41;;;;;;;6.20;3.10;;;;;;;30.25;29.97;98177.48;223670;182;138502;-62
2023/07/19 15:37:44;;;;;;;7.10;2.90;;;;;;;30.17;30.73;98173.45;223814;182;137169;-62
2023/07/19 15:42:48;;;;;;;5.60;2.90;;;;;;;30.00;30.46;98169.23;223670;182;143858;-62
2023/07/19 15:47:51;;;;;;;5.50;3.60;;;;;;;29.89;30.42;98172.09;223742;182;138935;-62
2023/07/19 15:52:59;;;;;;;3.20;2.60;;;;;;;29.80;30.40;98178.18;223849;182;230934;-62
2023/07/19 15:58:02;;;;;;;4.90;3.00;;;;;;;29.73;30.56;98180.33;223770;182;145089;-64
2023/07/19 16:03:05;;;;;;;5.90;2.70;;;;;;;29.68;30.25;98178.58;223743;182;138191;-64
2023/07/19 16:08:09;;;;;;;3.90;2.60;;;;;;;29.66;30.55;98187.15;223744;182;139197;-65
2023/07/19 16:13:13;;;;;;;4.70;2.70;;;;;;;29.65;30.21;98197.12;223724;182;145221;-62
2023/07/19 16:18:16;;;;;;;6.50;2.60;;;;;;;29.61;29.97;98196.34;223725;182;138507;-62
2023/07/19 16:23:19;;;;;;;7.20;2.80;;;;;;;29.51;29.89;98200.75;223657;182;136388;-62
2023/07/19 16:28:22;;;;;;;6.50;3.10;;;;;;;29.41;29.85;98197.05;223620;183;145817;-62
2023/07/19 16:33:26;;;;;;;6.80;2.80;;;;;;;29.36;29.84;98193.38;223700;182;138079;-62
2023/07/19 16:38:29;;;;;;;4.60;2.90;;;;;;;29.32;30.07;98192.50;223682;183;140051;-62
2023/07/19 16:43:32;;;;;;;3.70;2.70;;;;;;;29.29;30.27;98186.04;223720;183;145310;-62
2023/07/19 16:48:36;;;;;;;6.00;3.10;;;;;;;29.26;30.56;98191.58;223661;183;138596;-62
2023/07/19 16:53:39;;;;;;;14.10;6.80;;;;;;;29.23;30.45;98188.16;223773;182;137089;-62
2023/07/19 16:58:42;;;;;;;8.40;3.20;;;;;;;29.14;30.05;98189.90;223848;181;146769;-62
2023/07/19 17:03:46;;;;;;;8.80;3.10;;;;;;;29.09;30.06;98188.42;223687;181;140362;-62
2023/07/19 17:08:49;;;;;;;4.90;2.80;;;;;;;29.04;30.06;98197.83;223719;181;137029;-61
2023/07/19 17:13:53;;;;;;;4.00;2.30;;;;;;;28.97;30.24;98196.67;223805;181;145087;-63
2023/07/19 17:18:56;;;;;;;4.40;2.70;;;;;;;28.91;30.34;98201.69;223578;181;138396;-63
2023/07/19 17:24:20;;;;;;;5.20;2.90;;;;;;;28.87;30.53;98200.59;223695;181;136962;-62
2023/07/19 17:29:23;;;;;;;7.20;2.70;;;;;;;28.83;30.72;98203.67;223836;181;145267;-63
2023/07/19 17:34:26;;;;;;;5.50;2.90;;;;;;;28.79;30.94;98201.25;223803;182;139114;-62
2023/07/19 17:39:29;;;;;;;6.10;2.90;;;;;;;28.75;31.43;98200.70;223753;181;136407;-63
2023/07/19 17:44:35;;;;;;;10.60;5.50;;;;;;;28.69;31.34;98207.84;223733;181;145804;-62
2023/07/19 17:49:38;;;;;;;6.00;3.50;;;;;;;28.64;31.58;98203.70;223737;181;138735;-62
2023/07/19 17:54:41;;;;;;;8.00;3.00;;;;;;;28.57;32.63;98206.99;223735;181;137072;-62
2023/07/19 17:59:45;;;;;;;5.80;3.30;;;;;;;28.48;32.48;98205.63;223769;181;145280;-63
2023/07/19 18:04:53;;;;;;;6.30;3.20;;;;;;;28.42;33.52;98202.64;223769;182;138595;-62
2023/07/19 18:09:56;;;;;;;7.10;3.70;;;;;;;28.27;34.07;98210.41;223754;181;139315;-64
2023/07/19 18:15:19;;;;;;;5.70;3.70;;;;;;;28.17;34.26;98203.39;221645;192;666352;-61
2023/07/19 18:20:22;;;;;;;6.40;3.30;;;;;;;28.03;34.82;98206.75;223713;182;136550;-62
2023/07/19 18:25:25;;;;;;;9.10;3.40;;;;;;;27.92;35.08;98203.13;223723;182;143508;-61
2023/07/19 18:30:28;;;;;;;6.60;3.20;;;;;;;27.76;36.18;98207.87;223677;182;138399;-62
2023/07/19 18:35:32;;;;;;;8.80;3.10;;;;;;;27.54;36.54;98208.81;223708;182;135813;-62
2023/07/19 18:40:35;;;;;;;11.40;3.40;;;;;;;27.37;36.75;98209.73;223754;182;143707;-62
2023/07/19 18:45:38;;;;;;;8.10;3.50;;;;;;;27.14;37.71;98209.61;223714;182;138850;-62
2023/07/19 18:50:42;;;;;;;10.60;3.80;;;;;;;26.94;38.58;98202.69;223849;182;138750;-62
2023/07/19 18:55:46;;;;;;;20.10;7.10;;;;;;;26.76;39.15;98208.67;223841;179;143370;-62
2023/07/19 19:00:49;;;;;;;8.80;3.70;;;;;;;26.60;39.38;98213.52;223783;182;138347;-62
2023/07/19 19:05:52;;;;;;;10.40;3.90;;;;;;;26.49;39.42;98213.77;223698;181;136232;-62
2023/07/19 19:10:56;;;;;;;8.80;3.00;;;;;;;26.35;39.84;98214.86;223685;182;145283;-62
2023/07/19 19:15:59;;;;;;;6.70;3.30;;;;;;;26.23;40.08;98223.65;223640;181;139153;-62
2023/07/19 19:21:03;;;;;;;9.50;3.80;;;;;;;26.12;41.17;98227.55;223655;181;136889;-62
2023/07/19 19:26:06;;;;;;;7.60;4.00;;;;;;;26.01;41.57;98233.58;223600;178;145208;-62
2023/07/19 19:31:09;;;;;;;11.70;4.00;;;;;;;25.89;42.46;98236.50;223656;181;139993;-62
2023/07/19 19:36:13;;;;;;;8.10;3.60;;;;;;;25.73;43.06;98243.46;223634;181;137183;-62
2023/07/19 19:41:16;;;;;;;8.40;4.10;;;;;;;25.53;42.91;98244.35;223703;182;145829;-62
2023/07/19 19:46:19;;;;;;;10.20;4.00;;;;;;;25.36;43.65;98251.40;223635;181;138555;-64
2023/07/19 19:51:23;;;;;;;7.20;3.70;;;;;;;25.24;43.05;98248.55;223666;182;137523;-64
2023/07/19 19:56:26;;;;;;;7.70;3.70;;;;;;;25.17;43.12;98250.35;223595;182;145216;-64
2023/07/19 20:01:34;;;;;;;8.40;4.20;;;;;;;25.09;42.93;98245.88;223677;182;139631;-64
2023/07/19 20:06:38;;;;;;;8.30;4.00;;;;;;;25.00;42.65;98240.45;223735;181;137039;-64
2023/07/19 20:11:41;;;;;;;9.60;3.80;;;;;;;24.91;42.91;98244.83;223706;181;146918;-64
2023/07/19 20:16:49;;;;;;;7.10;3.80;;;;;;;24.78;43.36;98251.47;223848;181;138773;-64
2023/07/19 20:21:53;;;;;;;14.60;4.00;;;;;;;24.67;43.13;98251.30;223693;181;139320;-63
2023/07/19 20:26:57;;;;;;;9.40;3.90;;;;;;;24.57;43.73;98250.60;223753;181;145586;-64
2023/07/19 20:32:01;;;;;;;9.70;3.50;;;;;;;24.47;44.73;98254.50;223756;181;139805;-64
2023/07/19 20:37:04;;;;;;;10.40;4.10;;;;;;;24.37;44.88;98258.67;223765;181;136679;-64
2023/07/19 20:42:10;;;;;;;9.40;3.80;;;;;;;24.30;44.70;98255.27;223773;181;145002;-64
2023/07/19 20:47:14;;;;;;;9.40;3.90;;;;;;;24.25;44.70;98252.08;223811;181;139201;-64
2023/07/19 20:52:20;;;;;;;8.70;3.70;;;;;;;24.23;44.37;98248.22;223748;181;136992;-62
2023/07/19 20:57:23;;;;;;;5.60;3.80;;;;;;;24.21;44.17;98243.02;223678;181;145295;-65
2023/07/19 21:02:26;;;;;;;5.90;3.60;;;;;;;24.21;44.29;98241.69;223706;181;139340;-65
2023/07/19 21:07:30;;;;;;;8.80;3.60;;;;;;;24.22;44.14;98237.13;223749;181;137314;-62
2023/07/19 21:12:33;;;;;;;10.60;3.80;;;;;;;24.22;45.02;98238.13;223731;181;145230;-60
2023/07/19 21:17:39;;;;;;;9.00;3.70;;;;;;;24.20;44.97;98241.02;223765;181;138580;-62
2023/07/19 21:22:43;;;;;;;7.10;3.60;;;;;;;24.17;44.49;98235.92;223776;181;136244;-62
2023/07/19 21:27:46;;;;;;;8.30;3.80;;;;;;;24.15;44.98;98244.33;223693;181;145488;-63
2023/07/19 21:32:50;;;;;;;6.80;3.90;;;;;;;24.13;44.98;98243.40;223690;181;138328;-63
2023/07/19 21:37:53;;;;;;;8.90;4.10;;;;;;;24.15;44.34;98243.86;223727;181;136689;-62
2023/07/19 21:42:56;;;;;;;16.00;3.90;;;;;;;24.18;45.11;98241.92;223816;181;145857;-63
2023/07/19 21:48:00;;;;;;;8.90;4.30;;;;;;;24.13;46.52;98246.20;223660;181;138745;-62
2023/07/19 21:53:03;;;;;;;10.20;4.50;;;;;;;24.09;47.11;98242.66;223728;181;136876;-62
2023/07/19 21:58:06;;;;;;;9.60;4.70;;;;;;;24.02;47.71;98247.02;223641;182;147463;-62
2023/07/19 22:03:11;;;;;;;17.90;4.80;;;;;;;23.94;49.36;98248.61;223663;181;139674;-63
2023/07/19 22:08:15;;;;;;;9.80;4.40;;;;;;;23.83;50.05;98253.46;223725;181;140129;-62
2023/07/19 22:13:18;;;;;;;9.10;4.00;;;;;;;23.81;48.31;98253.96;223769;182;146121;-62
2023/07/19 22:18:25;;;;;;;7.90;3.90;;;;;;;23.88;47.15;98264.38;223549;181;138298;-62
2023/07/19 22:23:29;;;;;;;7.60;4.10;;;;;;;23.94;46.43;98266.13;223738;181;136873;-62
2023/07/19 22:28:34;;;;;;;7.60;3.60;;;;;;;24.01;46.08;98271.56;223580;181;145216;-62
2023/07/19 22:33:39;;;;;;;8.50;3.70;;;;;;;24.03;46.04;98280.90;223739;181;138890;-62
2023/07/19 22:38:42;;;;;;;8.20;4.30;;;;;;;24.03;46.52;98303.41;223805;181;140703;-62
2023/07/19 22:43:46;;;;;;;7.10;3.60;;;;;;;23.95;47.56;98317.27;223724;181;145755;-63
2023/07/19 22:48:49;;;;;;;8.20;4.40;;;;;;;23.84;48.46;98301.17;223546;181;138126;-63
2023/07/19 22:53:52;;;;;;;9.30;4.30;;;;;;;23.78;48.84;98277.30;223807;181;137309;-62
2023/07/19 22:58:56;;;;;;;7.80;3.90;;;;;;;23.72;48.81;98278.35;223733;181;145518;-62
2023/07/19 23:03:59;;;;;;;8.50;4.40;;;;;;;23.69;49.21;98279.73;223640;181;138397;-63
2023/07/19 23:09:04;;;;;;;7.30;4.20;;;;;;;23.63;49.00;98277.92;223770;181;138100;-63
2023/07/19 23:14:08;;;;;;;10.60;4.20;;;;;;;23.63;49.40;98268.73;223767;181;145287;-62
2023/07/19 23:19:12;;;;;;;10.20;4.40;;;;;;;23.60;49.91;98256.99;223668;177;138944;-62
2023/07/19 23:24:16;;;;;;;12.30;4.60;;;;;;;23.56;50.10;98252.58;223734;181;137213;-63
2023/07/19 23:29:24;;;;;;;9.70;4.30;;;;;;;23.55;50.29;98253.41;223701;182;145193;-62
2023/07/19 23:34:28;;;;;;;9.50;4.60;;;;;;;23.48;50.28;98244.16;223830;181;138424;-62
2023/07/19 23:39:32;;;;;;;8.90;4.30;;;;;;;23.46;50.18;98238.08;223832;181;136636;-62
2023/07/19 23:44:39;;;;;;;9.90;4.30;;;;;;;23.45;50.45;98230.23;223841;181;146007;-62